sensor_id;sensor_type;location;lat;lon;timestamp;P1;durP1;ratioP1;P2;durP2;ratioP2
41229;SDS011;26964;50.428;19.218;2023-04-29T00:00:31;22.6;;;12.8;;
41229;SDS011;26964;50.428;19.218;2023-04-29T00:01:31;19.1;;;11.8;;
41229;SDS011;26964;50.428;19.218;2023-04-29T00:02:31;16.3;;;10.1;;
41229;SDS011;26964;50.428;19.218;2023-04-29T00:03:31;16.4;;;10.3;;
41229;SDS011;26964;50.428;19.218;2023-04-29T00:04:31;17.2;;;9.8;;
41229;SDS011;26964;50.428;19.218;2023-04-29T00:05:31;18.2;;;9.9;;
41229;SDS011;26964;50.428;19.218;2023-04-29T00:06:31;16.9;;;8.9;;
41229;SDS011;26964;50.428;19.218;2023-04-29T00:07:31;15.3;;;9.0;;
41229;SDS011;26964;50.428;19.218;2023-04-29T00:08:31;14.6;;;9.4;;
41229;SDS011;26964;50.428;19.218;2023-04-29T00:09:51;15.3;;;9.1;;
41229;SDS011;26964;50.428;19.218;2023-04-29T00:10:31;15.7;;;9.0;;
41229;SDS011;26964;50.428;19.218;2023-04-29T00:11:31;16.4;;;9.4;;
41229;SDS011;26964;50.428;19.218;2023-04-29T00:12:31;15.7;;;8.8;;
41229;SDS011;26964;50.428;19.218;2023-04-29T00:13:31;13.9;;;8.6;;
41229;SDS011;26964;50.428;19.218;2023-04-29T00:14:31;15.6;;;9.2;;
41229;SDS011;26964;50.428;19.218;2023-04-29T00:15:32;13.3;;;8.8;;
41229;SDS011;26964;50.428;19.218;2023-04-29T00:16:31;15.3;;;8.8;;
41229;SDS011;26964;50.428;19.218;2023-04-29T00:17:31;16.5;;;9.4;;
41229;SDS011;26964;50.428;19.218;2023-04-29T00:18:31;15.2;;;9.2;;
41229;SDS011;26964;50.428;19.218;2023-04-29T00:19:31;17.4;;;8.8;;
41229;SDS011;26964;50.428;19.218;2023-04-29T00:20:31;16.8;;;10.2;;
41229;SDS011;26964;50.428;19.218;2023-04-29T00:21:31;17.7;;;9.2;;
41229;SDS011;26964;50.428;19.218;2023-04-29T00:22:31;14.8;;;8.6;;
41229;SDS011;26964;50.428;19.218;2023-04-29T00:23:31;15.2;;;8.8;;
41229;SDS011;26964;50.428;19.218;2023-04-29T00:24:31;15.4;;;9.6;;
41229;SDS011;26964;50.428;19.218;2023-04-29T00:25:31;15.8;;;8.7;;
41229;SDS011;26964;50.428;19.218;2023-04-29T00:26:31;17.9;;;9.8;;
41229;SDS011;26964;50.428;19.218;2023-04-29T00:27:31;15.1;;;9.3;;
41229;SDS011;26964;50.428;19.218;2023-04-29T00:28:31;17.0;;;9.2;;
41229;SDS011;26964;50.428;19.218;2023-04-29T00:29:31;14.8;;;8.9;;
41229;SDS011;26964;50.428;19.218;2023-04-29T00:30:31;17.5;;;9.2;;
41229;SDS011;26964;50.428;19.218;2023-04-29T00:31:31;16.1;;;9.4;;
41229;SDS011;26964;50.428;19.218;2023-04-29T00:32:31;20.2;;;10.6;;
41229;SDS011;26964;50.428;19.218;2023-04-29T00:33:31;17.3;;;9.6;;
41229;SDS011;26964;50.428;19.218;2023-04-29T00:34:31;16.2;;;9.0;;
41229;SDS011;26964;50.428;19.218;2023-04-29T00:35:31;17.6;;;10.1;;
41229;SDS011;26964;50.428;19.218;2023-04-29T00:36:31;21.9;;;10.5;;
41229;SDS011;26964;50.428;19.218;2023-04-29T00:37:31;14.2;;;9.1;;
41229;SDS011;26964;50.428;19.218;2023-04-29T00:38:31;17.8;;;10.0;;
41229;SDS011;26964;50.428;19.218;2023-04-29T00:39:31;18.9;;;10.1;;
41229;SDS011;26964;50.428;19.218;2023-04-29T00:40:31;17.4;;;10.5;;
41229;SDS011;26964;50.428;19.218;2023-04-29T00:41:31;18.2;;;10.4;;
41229;SDS011;26964;50.428;19.218;2023-04-29T00:42:31;16.5;;;10.1;;
41229;SDS011;26964;50.428;19.218;2023-04-29T00:43:31;18.2;;;10.3;;
41229;SDS011;26964;50.428;19.218;2023-04-29T00:44:31;18.3;;;10.9;;
41229;SDS011;26964;50.428;19.218;2023-04-29T00:45:31;17.5;;;11.4;;
41229;SDS011;26964;50.428;19.218;2023-04-29T00:46:31;19.0;;;12.0;;
41229;SDS011;26964;50.428;19.218;2023-04-29T00:47:31;19.1;;;10.9;;
41229;SDS011;26964;50.428;19.218;2023-04-29T00:48:31;20.5;;;11.7;;
41229;SDS011;26964;50.428;19.218;2023-04-29T00:49:31;19.2;;;10.4;;
41229;SDS011;26964;50.428;19.218;2023-04-29T00:50:31;19.3;;;10.9;;
41229;SDS011;26964;50.428;19.218;2023-04-29T00:51:53;21.7;;;11.0;;
41229;SDS011;26964;50.428;19.218;2023-04-29T00:52:31;20.5;;;12.0;;
41229;SDS011;26964;50.428;19.218;2023-04-29T00:53:31;20.7;;;11.8;;
41229;SDS011;26964;50.428;19.218;2023-04-29T00:54:31;22.3;;;12.3;;
41229;SDS011;26964;50.428;19.218;2023-04-29T00:55:31;23.2;;;12.0;;
41229;SDS011;26964;50.428;19.218;2023-04-29T00:56:31;22.5;;;11.4;;
41229;SDS011;26964;50.428;19.218;2023-04-29T00:58:31;20.6;;;11.1;;
41229;SDS011;26964;50.428;19.218;2023-04-29T00:59:31;19.3;;;11.8;;
41229;SDS011;26964;50.428;19.218;2023-04-29T01:00:31;20.2;;;11.3;;
41229;SDS011;26964;50.428;19.218;2023-04-29T01:02:31;22.5;;;12.3;;
41229;SDS011;26964;50.428;19.218;2023-04-29T01:03:31;23.9;;;14.7;;
41229;SDS011;26964;50.428;19.218;2023-04-29T01:04:31;20.7;;;13.4;;
41229;SDS011;26964;50.428;19.218;2023-04-29T01:05:31;21.0;;;12.2;;
41229;SDS011;26964;50.428;19.218;2023-04-29T01:06:33;22.4;;;12.1;;
41229;SDS011;26964;50.428;19.218;2023-04-29T01:07:33;24.3;;;13.0;;
41229;SDS011;26964;50.428;19.218;2023-04-29T01:08:33;23.6;;;12.7;;
41229;SDS011;26964;50.428;19.218;2023-04-29T01:10:33;23.1;;;11.6;;
41229;SDS011;26964;50.428;19.218;2023-04-29T01:11:33;21.4;;;12.5;;
41229;SDS011;26964;50.428;19.218;2023-04-29T01:12:32;22.7;;;12.0;;
41229;SDS011;26964;50.428;19.218;2023-04-29T01:13:36;24.6;;;12.9;;
41229;SDS011;26964;50.428;19.218;2023-04-29T01:14:31;22.8;;;13.1;;
41229;SDS011;26964;50.428;19.218;2023-04-29T01:15:32;23.3;;;12.8;;
41229;SDS011;26964;50.428;19.218;2023-04-29T01:16:33;25.8;;;13.3;;
41229;SDS011;26964;50.428;19.218;2023-04-29T01:17:34;25.5;;;12.5;;
41229;SDS011;26964;50.428;19.218;2023-04-29T01:19:37;24.6;;;12.5;;
41229;SDS011;26964;50.428;19.218;2023-04-29T01:20:31;23.9;;;12.7;;
41229;SDS011;26964;50.428;19.218;2023-04-29T01:21:31;28.3;;;13.3;;
41229;SDS011;26964;50.428;19.218;2023-04-29T01:22:31;25.9;;;13.0;;
41229;SDS011;26964;50.428;19.218;2023-04-29T01:23:31;24.2;;;12.8;;
41229;SDS011;26964;50.428;19.218;2023-04-29T01:24:31;24.8;;;14.0;;
41229;SDS011;26964;50.428;19.218;2023-04-29T01:25:31;24.9;;;13.6;;
41229;SDS011;26964;50.428;19.218;2023-04-29T01:26:31;27.0;;;14.0;;
41229;SDS011;26964;50.428;19.218;2023-04-29T01:27:32;26.4;;;13.6;;
41229;SDS011;26964;50.428;19.218;2023-04-29T01:29:32;26.7;;;14.4;;
41229;SDS011;26964;50.428;19.218;2023-04-29T01:30:32;25.5;;;14.2;;
41229;SDS011;26964;50.428;19.218;2023-04-29T01:31:31;23.5;;;14.0;;
41229;SDS011;26964;50.428;19.218;2023-04-29T01:32:35;23.7;;;14.7;;
41229;SDS011;26964;50.428;19.218;2023-04-29T01:33:35;33.7;;;18.7;;
41229;SDS011;26964;50.428;19.218;2023-04-29T01:34:33;30.1;;;17.3;;
41229;SDS011;26964;50.428;19.218;2023-04-29T01:37:34;60.8;;;23.0;;
41229;SDS011;26964;50.428;19.218;2023-04-29T01:38:33;57.4;;;22.6;;
41229;SDS011;26964;50.428;19.218;2023-04-29T01:39:31;46.4;;;18.4;;
41229;SDS011;26964;50.428;19.218;2023-04-29T01:40:33;34.2;;;16.5;;
41229;SDS011;26964;50.428;19.218;2023-04-29T01:41:34;31.1;;;14.9;;
41229;SDS011;26964;50.428;19.218;2023-04-29T01:42:33;28.5;;;15.0;;
41229;SDS011;26964;50.428;19.218;2023-04-29T01:43:31;26.5;;;12.3;;
41229;SDS011;26964;50.428;19.218;2023-04-29T01:44:31;30.4;;;14.3;;
41229;SDS011;26964;50.428;19.218;2023-04-29T01:45:31;27.9;;;14.4;;
41229;SDS011;26964;50.428;19.218;2023-04-29T01:46:31;28.3;;;14.0;;
41229;SDS011;26964;50.428;19.218;2023-04-29T01:47:31;31.0;;;14.3;;
41229;SDS011;26964;50.428;19.218;2023-04-29T01:48:31;25.3;;;14.5;;
41229;SDS011;26964;50.428;19.218;2023-04-29T01:49:34;24.5;;;12.9;;
41229;SDS011;26964;50.428;19.218;2023-04-29T01:50:31;22.8;;;12.8;;
41229;SDS011;26964;50.428;19.218;2023-04-29T01:51:31;24.8;;;13.7;;
41229;SDS011;26964;50.428;19.218;2023-04-29T01:52:31;21.6;;;13.8;;
41229;SDS011;26964;50.428;19.218;2023-04-29T01:53:30;22.3;;;13.3;;
41229;SDS011;26964;50.428;19.218;2023-04-29T01:54:30;24.1;;;13.1;;
41229;SDS011;26964;50.428;19.218;2023-04-29T01:55:31;28.4;;;14.1;;
41229;SDS011;26964;50.428;19.218;2023-04-29T01:56:31;20.3;;;13.3;;
41229;SDS011;26964;50.428;19.218;2023-04-29T01:57:31;22.2;;;12.3;;
41229;SDS011;26964;50.428;19.218;2023-04-29T01:58:31;21.2;;;12.6;;
41229;SDS011;26964;50.428;19.218;2023-04-29T01:59:31;23.5;;;12.9;;
41229;SDS011;26964;50.428;19.218;2023-04-29T02:00:31;27.7;;;15.2;;
41229;SDS011;26964;50.428;19.218;2023-04-29T02:01:31;29.1;;;15.4;;
41229;SDS011;26964;50.428;19.218;2023-04-29T02:02:31;27.6;;;15.4;;
41229;SDS011;26964;50.428;19.218;2023-04-29T02:03:31;28.9;;;14.7;;
41229;SDS011;26964;50.428;19.218;2023-04-29T02:04:31;30.5;;;15.1;;
41229;SDS011;26964;50.428;19.218;2023-04-29T02:05:31;28.1;;;13.7;;
41229;SDS011;26964;50.428;19.218;2023-04-29T02:06:31;25.8;;;13.7;;
41229;SDS011;26964;50.428;19.218;2023-04-29T02:07:31;30.1;;;13.2;;
41229;SDS011;26964;50.428;19.218;2023-04-29T02:08:31;22.1;;;12.9;;
41229;SDS011;26964;50.428;19.218;2023-04-29T02:09:31;23.2;;;13.2;;
41229;SDS011;26964;50.428;19.218;2023-04-29T02:10:31;27.0;;;13.3;;
41229;SDS011;26964;50.428;19.218;2023-04-29T02:11:30;23.7;;;12.6;;
41229;SDS011;26964;50.428;19.218;2023-04-29T02:12:31;24.8;;;13.1;;
41229;SDS011;26964;50.428;19.218;2023-04-29T02:13:31;24.7;;;12.1;;
41229;SDS011;26964;50.428;19.218;2023-04-29T02:14:31;21.7;;;12.0;;
41229;SDS011;26964;50.428;19.218;2023-04-29T02:15:31;23.6;;;12.5;;
41229;SDS011;26964;50.428;19.218;2023-04-29T02:16:30;22.2;;;12.5;;
41229;SDS011;26964;50.428;19.218;2023-04-29T02:17:32;25.2;;;15.2;;
41229;SDS011;26964;50.428;19.218;2023-04-29T02:18:31;28.0;;;15.0;;
41229;SDS011;26964;50.428;19.218;2023-04-29T02:19:31;24.5;;;14.1;;
41229;SDS011;26964;50.428;19.218;2023-04-29T02:20:31;27.4;;;15.5;;
41229;SDS011;26964;50.428;19.218;2023-04-29T02:21:31;27.1;;;15.3;;
41229;SDS011;26964;50.428;19.218;2023-04-29T02:22:30;27.0;;;15.7;;
41229;SDS011;26964;50.428;19.218;2023-04-29T02:23:31;27.1;;;15.5;;
41229;SDS011;26964;50.428;19.218;2023-04-29T02:24:31;28.3;;;15.9;;
41229;SDS011;26964;50.428;19.218;2023-04-29T02:25:31;29.4;;;16.9;;
41229;SDS011;26964;50.428;19.218;2023-04-29T02:26:31;30.8;;;17.6;;
41229;SDS011;26964;50.428;19.218;2023-04-29T02:27:31;24.8;;;14.5;;
41229;SDS011;26964;50.428;19.218;2023-04-29T02:28:31;26.7;;;15.6;;
41229;SDS011;26964;50.428;19.218;2023-04-29T02:29:31;25.6;;;16.7;;
41229;SDS011;26964;50.428;19.218;2023-04-29T02:30:31;27.8;;;16.2;;
41229;SDS011;26964;50.428;19.218;2023-04-29T02:31:31;26.5;;;15.8;;
41229;SDS011;26964;50.428;19.218;2023-04-29T02:32:31;28.0;;;16.1;;
41229;SDS011;26964;50.428;19.218;2023-04-29T02:33:31;27.5;;;16.4;;
41229;SDS011;26964;50.428;19.218;2023-04-29T02:34:30;31.0;;;16.4;;
41229;SDS011;26964;50.428;19.218;2023-04-29T02:35:30;27.6;;;15.5;;
41229;SDS011;26964;50.428;19.218;2023-04-29T02:36:31;28.6;;;15.4;;
41229;SDS011;26964;50.428;19.218;2023-04-29T02:37:30;28.2;;;16.5;;
41229;SDS011;26964;50.428;19.218;2023-04-29T02:38:30;31.1;;;16.0;;
41229;SDS011;26964;50.428;19.218;2023-04-29T02:39:30;27.5;;;16.0;;
41229;SDS011;26964;50.428;19.218;2023-04-29T02:40:31;26.1;;;15.4;;
41229;SDS011;26964;50.428;19.218;2023-04-29T02:41:31;29.8;;;14.9;;
41229;SDS011;26964;50.428;19.218;2023-04-29T02:42:30;25.5;;;14.9;;
41229;SDS011;26964;50.428;19.218;2023-04-29T02:43:30;27.7;;;15.7;;
41229;SDS011;26964;50.428;19.218;2023-04-29T02:44:30;27.4;;;15.6;;
41229;SDS011;26964;50.428;19.218;2023-04-29T02:45:30;25.0;;;15.5;;
41229;SDS011;26964;50.428;19.218;2023-04-29T02:46:30;28.1;;;15.9;;
41229;SDS011;26964;50.428;19.218;2023-04-29T02:47:30;25.4;;;15.1;;
41229;SDS011;26964;50.428;19.218;2023-04-29T02:48:30;30.2;;;15.9;;
41229;SDS011;26964;50.428;19.218;2023-04-29T02:49:30;29.4;;;16.6;;
41229;SDS011;26964;50.428;19.218;2023-04-29T02:50:30;29.0;;;15.4;;
41229;SDS011;26964;50.428;19.218;2023-04-29T02:51:31;31.5;;;17.3;;
41229;SDS011;26964;50.428;19.218;2023-04-29T02:52:30;28.1;;;17.1;;
41229;SDS011;26964;50.428;19.218;2023-04-29T02:53:30;25.6;;;15.7;;
41229;SDS011;26964;50.428;19.218;2023-04-29T02:54:30;34.7;;;16.6;;
41229;SDS011;26964;50.428;19.218;2023-04-29T02:55:30;28.6;;;17.3;;
41229;SDS011;26964;50.428;19.218;2023-04-29T02:56:31;25.6;;;15.2;;
41229;SDS011;26964;50.428;19.218;2023-04-29T02:57:31;24.4;;;15.2;;
41229;SDS011;26964;50.428;19.218;2023-04-29T02:58:30;31.0;;;15.6;;
41229;SDS011;26964;50.428;19.218;2023-04-29T02:59:30;29.6;;;15.9;;
41229;SDS011;26964;50.428;19.218;2023-04-29T03:00:30;31.8;;;16.3;;
41229;SDS011;26964;50.428;19.218;2023-04-29T03:01:30;29.4;;;16.0;;
41229;SDS011;26964;50.428;19.218;2023-04-29T03:02:31;32.8;;;16.9;;
41229;SDS011;26964;50.428;19.218;2023-04-29T03:03:30;30.4;;;16.9;;
41229;SDS011;26964;50.428;19.218;2023-04-29T03:04:30;27.8;;;16.5;;
41229;SDS011;26964;50.428;19.218;2023-04-29T03:05:30;26.8;;;16.1;;
41229;SDS011;26964;50.428;19.218;2023-04-29T03:06:31;27.4;;;16.5;;
41229;SDS011;26964;50.428;19.218;2023-04-29T03:07:31;27.8;;;15.3;;
41229;SDS011;26964;50.428;19.218;2023-04-29T03:08:30;26.7;;;14.9;;
41229;SDS011;26964;50.428;19.218;2023-04-29T03:09:30;25.1;;;15.0;;
41229;SDS011;26964;50.428;19.218;2023-04-29T03:10:30;28.7;;;14.8;;
41229;SDS011;26964;50.428;19.218;2023-04-29T03:11:30;28.6;;;15.3;;
41229;SDS011;26964;50.428;19.218;2023-04-29T03:12:30;31.3;;;15.2;;
41229;SDS011;26964;50.428;19.218;2023-04-29T03:13:31;24.8;;;14.9;;
41229;SDS011;26964;50.428;19.218;2023-04-29T03:14:30;23.5;;;15.1;;
41229;SDS011;26964;50.428;19.218;2023-04-29T03:15:30;26.1;;;16.1;;
41229;SDS011;26964;50.428;19.218;2023-04-29T03:16:30;28.0;;;16.3;;
41229;SDS011;26964;50.428;19.218;2023-04-29T03:17:30;27.2;;;15.5;;
41229;SDS011;26964;50.428;19.218;2023-04-29T03:18:47;24.9;;;15.8;;
41229;SDS011;26964;50.428;19.218;2023-04-29T03:19:30;26.8;;;15.1;;
41229;SDS011;26964;50.428;19.218;2023-04-29T03:20:30;28.9;;;16.1;;
41229;SDS011;26964;50.428;19.218;2023-04-29T03:21:30;28.1;;;16.1;;
41229;SDS011;26964;50.428;19.218;2023-04-29T03:22:30;30.2;;;17.2;;
41229;SDS011;26964;50.428;19.218;2023-04-29T03:23:30;30.0;;;14.3;;
41229;SDS011;26964;50.428;19.218;2023-04-29T03:24:31;29.0;;;15.2;;
41229;SDS011;26964;50.428;19.218;2023-04-29T03:25:30;29.1;;;15.5;;
41229;SDS011;26964;50.428;19.218;2023-04-29T03:26:30;26.7;;;15.2;;
41229;SDS011;26964;50.428;19.218;2023-04-29T03:27:30;29.1;;;14.8;;
41229;SDS011;26964;50.428;19.218;2023-04-29T03:28:30;27.1;;;15.2;;
41229;SDS011;26964;50.428;19.218;2023-04-29T03:29:30;26.9;;;14.9;;
41229;SDS011;26964;50.428;19.218;2023-04-29T03:30:30;25.1;;;14.6;;
41229;SDS011;26964;50.428;19.218;2023-04-29T03:31:30;31.5;;;16.4;;
41229;SDS011;26964;50.428;19.218;2023-04-29T03:32:30;30.6;;;17.1;;
41229;SDS011;26964;50.428;19.218;2023-04-29T03:33:30;24.7;;;15.3;;
41229;SDS011;26964;50.428;19.218;2023-04-29T03:34:30;28.4;;;15.1;;
41229;SDS011;26964;50.428;19.218;2023-04-29T03:35:31;29.4;;;15.5;;
41229;SDS011;26964;50.428;19.218;2023-04-29T03:36:30;26.2;;;16.1;;
41229;SDS011;26964;50.428;19.218;2023-04-29T03:37:30;24.4;;;15.3;;
41229;SDS011;26964;50.428;19.218;2023-04-29T03:38:30;25.6;;;15.6;;
41229;SDS011;26964;50.428;19.218;2023-04-29T03:39:30;23.6;;;15.3;;
41229;SDS011;26964;50.428;19.218;2023-04-29T03:40:30;26.9;;;14.8;;
41229;SDS011;26964;50.428;19.218;2023-04-29T03:41:30;27.7;;;15.7;;
41229;SDS011;26964;50.428;19.218;2023-04-29T03:42:30;24.0;;;14.7;;
41229;SDS011;26964;50.428;19.218;2023-04-29T03:43:30;26.1;;;15.7;;
41229;SDS011;26964;50.428;19.218;2023-04-29T03:44:30;27.4;;;15.3;;
41229;SDS011;26964;50.428;19.218;2023-04-29T03:45:30;27.3;;;16.3;;
41229;SDS011;26964;50.428;19.218;2023-04-29T03:46:31;39.0;;;16.5;;
41229;SDS011;26964;50.428;19.218;2023-04-29T03:47:30;31.0;;;16.2;;
41229;SDS011;26964;50.428;19.218;2023-04-29T03:48:30;24.3;;;15.3;;
41229;SDS011;26964;50.428;19.218;2023-04-29T03:49:30;31.4;;;16.9;;
41229;SDS011;26964;50.428;19.218;2023-04-29T03:50:30;28.9;;;15.3;;
41229;SDS011;26964;50.428;19.218;2023-04-29T03:51:30;27.5;;;16.3;;
41229;SDS011;26964;50.428;19.218;2023-04-29T03:52:31;28.4;;;16.8;;
41229;SDS011;26964;50.428;19.218;2023-04-29T03:53:30;34.7;;;19.9;;
41229;SDS011;26964;50.428;19.218;2023-04-29T03:54:30;31.5;;;17.8;;
41229;SDS011;26964;50.428;19.218;2023-04-29T03:55:30;31.6;;;17.1;;
41229;SDS011;26964;50.428;19.218;2023-04-29T03:56:30;31.4;;;17.5;;
41229;SDS011;26964;50.428;19.218;2023-04-29T03:57:36;31.6;;;16.9;;
41229;SDS011;26964;50.428;19.218;2023-04-29T03:58:30;36.3;;;20.4;;
41229;SDS011;26964;50.428;19.218;2023-04-29T03:59:30;32.6;;;17.0;;
41229;SDS011;26964;50.428;19.218;2023-04-29T04:00:31;26.7;;;16.1;;
41229;SDS011;26964;50.428;19.218;2023-04-29T04:01:30;30.3;;;17.0;;
41229;SDS011;26964;50.428;19.218;2023-04-29T04:02:30;30.8;;;17.0;;
41229;SDS011;26964;50.428;19.218;2023-04-29T04:03:30;31.7;;;16.9;;
41229;SDS011;26964;50.428;19.218;2023-04-29T04:04:30;30.5;;;16.6;;
41229;SDS011;26964;50.428;19.218;2023-04-29T04:05:30;31.7;;;16.4;;
41229;SDS011;26964;50.428;19.218;2023-04-29T04:06:30;31.8;;;16.6;;
41229;SDS011;26964;50.428;19.218;2023-04-29T04:07:30;28.8;;;16.0;;
41229;SDS011;26964;50.428;19.218;2023-04-29T04:08:30;34.4;;;16.7;;
41229;SDS011;26964;50.428;19.218;2023-04-29T04:09:30;30.2;;;15.9;;
41229;SDS011;26964;50.428;19.218;2023-04-29T04:10:30;32.6;;;17.9;;
41229;SDS011;26964;50.428;19.218;2023-04-29T04:11:30;28.4;;;15.5;;
41229;SDS011;26964;50.428;19.218;2023-04-29T04:12:30;30.4;;;16.8;;
41229;SDS011;26964;50.428;19.218;2023-04-29T04:13:31;27.1;;;14.1;;
41229;SDS011;26964;50.428;19.218;2023-04-29T04:14:30;28.4;;;14.6;;
41229;SDS011;26964;50.428;19.218;2023-04-29T04:15:31;29.1;;;14.4;;
41229;SDS011;26964;50.428;19.218;2023-04-29T04:16:30;28.2;;;15.8;;
41229;SDS011;26964;50.428;19.218;2023-04-29T04:17:30;35.8;;;15.2;;
41229;SDS011;26964;50.428;19.218;2023-04-29T04:18:30;32.6;;;14.9;;
41229;SDS011;26964;50.428;19.218;2023-04-29T04:19:30;29.3;;;14.7;;
41229;SDS011;26964;50.428;19.218;2023-04-29T04:20:30;31.4;;;15.4;;
41229;SDS011;26964;50.428;19.218;2023-04-29T04:21:30;27.4;;;14.6;;
41229;SDS011;26964;50.428;19.218;2023-04-29T04:22:30;28.9;;;14.1;;
41229;SDS011;26964;50.428;19.218;2023-04-29T04:23:30;28.4;;;15.2;;
41229;SDS011;26964;50.428;19.218;2023-04-29T04:24:30;28.9;;;15.1;;
41229;SDS011;26964;50.428;19.218;2023-04-29T04:25:30;29.3;;;14.5;;
41229;SDS011;26964;50.428;19.218;2023-04-29T04:26:30;25.7;;;13.8;;
41229;SDS011;26964;50.428;19.218;2023-04-29T04:27:30;31.2;;;14.8;;
41229;SDS011;26964;50.428;19.218;2023-04-29T04:28:30;26.8;;;15.3;;
41229;SDS011;26964;50.428;19.218;2023-04-29T04:29:31;29.0;;;15.0;;
41229;SDS011;26964;50.428;19.218;2023-04-29T04:30:30;30.4;;;15.0;;
41229;SDS011;26964;50.428;19.218;2023-04-29T04:31:44;27.6;;;13.7;;
41229;SDS011;26964;50.428;19.218;2023-04-29T04:32:30;29.2;;;13.9;;
41229;SDS011;26964;50.428;19.218;2023-04-29T04:33:30;24.2;;;13.5;;
41229;SDS011;26964;50.428;19.218;2023-04-29T04:34:31;26.8;;;13.8;;
41229;SDS011;26964;50.428;19.218;2023-04-29T04:35:30;27.0;;;14.1;;
41229;SDS011;26964;50.428;19.218;2023-04-29T04:36:30;30.6;;;14.1;;
41229;SDS011;26964;50.428;19.218;2023-04-29T04:37:30;28.5;;;14.0;;
41229;SDS011;26964;50.428;19.218;2023-04-29T04:38:30;31.7;;;13.9;;
41229;SDS011;26964;50.428;19.218;2023-04-29T04:39:30;27.0;;;13.3;;
41229;SDS011;26964;50.428;19.218;2023-04-29T04:40:30;30.0;;;14.4;;
41229;SDS011;26964;50.428;19.218;2023-04-29T04:41:30;30.4;;;14.3;;
41229;SDS011;26964;50.428;19.218;2023-04-29T04:42:30;32.0;;;13.3;;
41229;SDS011;26964;50.428;19.218;2023-04-29T04:43:31;25.6;;;12.7;;
41229;SDS011;26964;50.428;19.218;2023-04-29T04:44:30;29.1;;;13.9;;
41229;SDS011;26964;50.428;19.218;2023-04-29T04:45:30;29.1;;;13.9;;
41229;SDS011;26964;50.428;19.218;2023-04-29T04:46:30;26.9;;;13.2;;
41229;SDS011;26964;50.428;19.218;2023-04-29T04:47:30;27.7;;;13.0;;
41229;SDS011;26964;50.428;19.218;2023-04-29T04:48:30;30.9;;;13.8;;
41229;SDS011;26964;50.428;19.218;2023-04-29T04:49:30;28.5;;;13.1;;
41229;SDS011;26964;50.428;19.218;2023-04-29T04:50:30;30.3;;;14.3;;
41229;SDS011;26964;50.428;19.218;2023-04-29T04:51:31;28.3;;;14.6;;
41229;SDS011;26964;50.428;19.218;2023-04-29T04:52:31;34.1;;;14.4;;
41229;SDS011;26964;50.428;19.218;2023-04-29T04:53:31;28.8;;;14.7;;
41229;SDS011;26964;50.428;19.218;2023-04-29T04:54:31;31.9;;;15.0;;
41229;SDS011;26964;50.428;19.218;2023-04-29T04:55:30;26.8;;;13.9;;
41229;SDS011;26964;50.428;19.218;2023-04-29T04:56:30;32.1;;;14.4;;
41229;SDS011;26964;50.428;19.218;2023-04-29T04:57:30;34.9;;;15.3;;
41229;SDS011;26964;50.428;19.218;2023-04-29T04:58:30;32.0;;;14.9;;
41229;SDS011;26964;50.428;19.218;2023-04-29T04:59:56;29.6;;;14.8;;
41229;SDS011;26964;50.428;19.218;2023-04-29T05:00:30;34.1;;;15.3;;
41229;SDS011;26964;50.428;19.218;2023-04-29T05:01:30;33.9;;;15.5;;
41229;SDS011;26964;50.428;19.218;2023-04-29T05:02:30;30.2;;;15.0;;
41229;SDS011;26964;50.428;19.218;2023-04-29T05:03:30;26.8;;;14.5;;
41229;SDS011;26964;50.428;19.218;2023-04-29T05:04:31;28.9;;;14.9;;
41229;SDS011;26964;50.428;19.218;2023-04-29T05:05:32;33.8;;;15.3;;
41229;SDS011;26964;50.428;19.218;2023-04-29T05:06:30;31.3;;;15.7;;
41229;SDS011;26964;50.428;19.218;2023-04-29T05:07:31;32.0;;;15.9;;
41229;SDS011;26964;50.428;19.218;2023-04-29T05:08:30;32.6;;;15.6;;
41229;SDS011;26964;50.428;19.218;2023-04-29T05:09:31;33.4;;;17.4;;
41229;SDS011;26964;50.428;19.218;2023-04-29T05:10:30;36.7;;;19.1;;
41229;SDS011;26964;50.428;19.218;2023-04-29T05:11:30;32.9;;;18.0;;
41229;SDS011;26964;50.428;19.218;2023-04-29T05:12:30;32.9;;;19.1;;
41229;SDS011;26964;50.428;19.218;2023-04-29T05:13:31;33.4;;;19.2;;
41229;SDS011;26964;50.428;19.218;2023-04-29T05:14:30;35.3;;;20.3;;
41229;SDS011;26964;50.428;19.218;2023-04-29T05:15:30;36.1;;;21.5;;
41229;SDS011;26964;50.428;19.218;2023-04-29T05:16:30;38.9;;;22.7;;
41229;SDS011;26964;50.428;19.218;2023-04-29T05:17:30;37.1;;;22.3;;
41229;SDS011;26964;50.428;19.218;2023-04-29T05:18:30;42.4;;;23.4;;
41229;SDS011;26964;50.428;19.218;2023-04-29T05:19:30;39.9;;;22.5;;
41229;SDS011;26964;50.428;19.218;2023-04-29T05:20:30;38.2;;;21.9;;
41229;SDS011;26964;50.428;19.218;2023-04-29T05:21:30;43.0;;;22.9;;
41229;SDS011;26964;50.428;19.218;2023-04-29T05:22:30;38.7;;;19.3;;
41229;SDS011;26964;50.428;19.218;2023-04-29T05:23:35;32.4;;;19.0;;
41229;SDS011;26964;50.428;19.218;2023-04-29T05:24:30;32.4;;;18.8;;
41229;SDS011;26964;50.428;19.218;2023-04-29T05:25:30;31.5;;;17.7;;
41229;SDS011;26964;50.428;19.218;2023-04-29T05:26:30;32.5;;;18.1;;
41229;SDS011;26964;50.428;19.218;2023-04-29T05:27:30;31.6;;;16.5;;
41229;SDS011;26964;50.428;19.218;2023-04-29T05:28:30;31.6;;;15.6;;
41229;SDS011;26964;50.428;19.218;2023-04-29T05:29:30;31.9;;;16.3;;
41229;SDS011;26964;50.428;19.218;2023-04-29T05:30:30;29.5;;;15.9;;
41229;SDS011;26964;50.428;19.218;2023-04-29T05:31:30;33.7;;;16.8;;
41229;SDS011;26964;50.428;19.218;2023-04-29T05:32:30;28.5;;;15.2;;
41229;SDS011;26964;50.428;19.218;2023-04-29T05:33:30;25.1;;;14.9;;
41229;SDS011;26964;50.428;19.218;2023-04-29T05:34:30;23.0;;;13.3;;
41229;SDS011;26964;50.428;19.218;2023-04-29T05:35:30;25.6;;;14.2;;
41229;SDS011;26964;50.428;19.218;2023-04-29T05:36:30;28.0;;;14.7;;
41229;SDS011;26964;50.428;19.218;2023-04-29T05:37:30;27.3;;;15.9;;
41229;SDS011;26964;50.428;19.218;2023-04-29T05:38:30;27.3;;;15.3;;
41229;SDS011;26964;50.428;19.218;2023-04-29T05:39:30;28.9;;;16.0;;
41229;SDS011;26964;50.428;19.218;2023-04-29T05:40:30;28.2;;;16.4;;
41229;SDS011;26964;50.428;19.218;2023-04-29T05:41:30;29.0;;;17.2;;
41229;SDS011;26964;50.428;19.218;2023-04-29T05:42:30;29.5;;;17.6;;
41229;SDS011;26964;50.428;19.218;2023-04-29T05:43:30;32.3;;;18.6;;
41229;SDS011;26964;50.428;19.218;2023-04-29T05:44:31;32.1;;;18.1;;
41229;SDS011;26964;50.428;19.218;2023-04-29T05:45:30;39.2;;;20.2;;
41229;SDS011;26964;50.428;19.218;2023-04-29T05:46:30;37.5;;;19.9;;
41229;SDS011;26964;50.428;19.218;2023-04-29T05:47:30;36.3;;;20.3;;
41229;SDS011;26964;50.428;19.218;2023-04-29T05:48:30;36.7;;;20.7;;
41229;SDS011;26964;50.428;19.218;2023-04-29T05:49:30;37.3;;;20.3;;
41229;SDS011;26964;50.428;19.218;2023-04-29T05:50:30;36.6;;;20.5;;
41229;SDS011;26964;50.428;19.218;2023-04-29T05:51:43;31.7;;;18.4;;
41229;SDS011;26964;50.428;19.218;2023-04-29T05:52:30;30.3;;;18.5;;
41229;SDS011;26964;50.428;19.218;2023-04-29T05:53:30;26.2;;;17.5;;
41229;SDS011;26964;50.428;19.218;2023-04-29T05:54:30;24.1;;;14.9;;
41229;SDS011;26964;50.428;19.218;2023-04-29T05:55:30;27.0;;;15.1;;
41229;SDS011;26964;50.428;19.218;2023-04-29T05:56:30;21.0;;;13.6;;
41229;SDS011;26964;50.428;19.218;2023-04-29T05:57:30;21.1;;;12.1;;
41229;SDS011;26964;50.428;19.218;2023-04-29T05:58:30;17.4;;;10.5;;
41229;SDS011;26964;50.428;19.218;2023-04-29T05:59:30;19.2;;;10.6;;
41229;SDS011;26964;50.428;19.218;2023-04-29T06:00:30;15.7;;;10.0;;
41229;SDS011;26964;50.428;19.218;2023-04-29T06:01:30;15.3;;;9.1;;
41229;SDS011;26964;50.428;19.218;2023-04-29T06:02:30;17.0;;;10.1;;
41229;SDS011;26964;50.428;19.218;2023-04-29T06:03:30;16.0;;;9.5;;